createdAt,value
2019-06-01T00:01:30.425Z,36.95
2019-06-01T00:04:08.051Z,30.85
2019-06-01T00:06:46.954Z,32.95
2019-06-01T00:09:24.440Z,36.63
2019-06-01T00:12:04.265Z,32.05
2019-06-01T00:14:41.851Z,31.60
2019-06-01T00:17:19.149Z,25.57
2019-06-01T00:19:56.479Z,29.05
2019-06-01T00:22:35.518Z,22.77
2019-06-01T00:25:12.905Z,28.38
2019-06-01T00:27:51.334Z,26.93
2019-06-01T00:30:28.987Z,28.73
2019-06-01T00:33:06.898Z,31.85
2019-06-01T00:35:45.478Z,32.93
2019-06-01T00:38:23.748Z,27.35
2019-06-01T00:41:01.416Z,25.50
2019-06-01T00:43:42.087Z,22.65
2019-06-01T00:46:19.879Z,30.37
2019-06-01T00:48:56.973Z,24.45
2019-06-01T00:51:34.644Z,23.30
2019-06-01T00:54:12.687Z,29.07
2019-06-01T00:56:49.981Z,25.00
2019-06-01T00:59:27.559Z,22.02
2019-06-01T01:02:04.945Z,20.43
2019-06-01T01:04:44.150Z,19.15
2019-06-01T01:07:21.534Z,16.70
2019-06-01T01:09:59.300Z,11.33
2019-06-01T01:12:39.268Z,10.30
2019-06-01T01:15:19.510Z,13.03
2019-06-01T01:17:57.144Z,8.10
2019-06-01T01:20:34.635Z,10.78
2019-06-01T01:23:12.648Z,8.68
2019-06-01T01:25:50.577Z,9.38
2019-06-01T01:28:29.218Z,9.73
2019-06-01T01:31:13.673Z,9.35
2019-06-01T01:33:45.588Z,10.25
2019-06-01T01:36:23.361Z,9.30
2019-06-01T01:39:00.427Z,9.60
2019-06-01T01:41:39.588Z,12.18
2019-06-01T01:44:16.762Z,8.00
2019-06-01T01:46:55.516Z,12.33
2019-06-01T01:49:32.955Z,10.55
2019-06-01T01:52:10.544Z,9.55
2019-06-01T01:54:47.656Z,9.30
2019-06-01T01:57:26.735Z,9.80
2019-06-01T02:00:03.971Z,6.75
2019-06-01T02:02:42.610Z,9.00
2019-06-01T02:05:20.322Z,6.95
2019-06-01T02:08:00.128Z,57.48
2019-06-01T02:10:37.860Z,11.18
2019-06-01T02:13:15.991Z,10.00
2019-06-01T02:15:54.118Z,10.98
2019-06-01T02:18:34.327Z,10.35
2019-06-01T02:21:11.508Z,8.88
2019-06-01T02:23:49.593Z,11.95
2019-06-01T02:26:27.308Z,7.97
2019-06-01T02:29:06.404Z,9.43
2019-06-01T02:31:43.829Z,9.20
2019-06-01T02:34:21.566Z,8.58
2019-06-01T02:37:00.204Z,8.93
2019-06-01T02:39:37.975Z,8.90
2019-06-01T02:42:16.118Z,11.65
2019-06-01T02:44:54.976Z,6.85
2019-06-01T02:47:33.757Z,9.48
2019-06-01T02:50:13.429Z,10.65
2019-06-01T02:52:50.840Z,7.42
2019-06-01T02:55:27.974Z,9.88
2019-06-01T02:58:06.705Z,11.22
2019-06-01T03:01:37.106Z,7.33
2019-06-01T03:04:15.043Z,11.90
2019-06-01T03:06:52.934Z,9.45
2019-06-01T03:09:30.536Z,12.45
2019-06-01T03:12:09.567Z,10.53
2019-06-01T03:14:48.216Z,10.90
2019-06-01T03:17:27.703Z,12.35
2019-06-01T03:20:07.897Z,11.90
2019-06-01T03:22:48.288Z,11.63
2019-06-01T03:25:25.909Z,10.70
2019-06-01T03:28:04.168Z,8.58
2019-06-01T03:30:46.309Z,11.83
2019-06-01T03:33:23.930Z,9.50
2019-06-01T03:36:02.821Z,22.40
2019-06-01T03:38:42.367Z,10.95
2019-06-01T03:41:20.066Z,8.78
2019-06-01T03:43:58.354Z,7.42
2019-06-01T03:46:36.484Z,6.72
2019-06-01T03:49:14.092Z,7.75
2019-06-01T03:51:51.547Z,9.20
2019-06-01T03:54:30.455Z,7.60
2019-06-01T03:57:09.102Z,11.22
2019-06-01T03:59:46.279Z,7.80
2019-06-01T04:02:32.748Z,9.38
2019-06-01T04:05:03.631Z,9.48
2019-06-01T04:07:40.985Z,6.50
2019-06-01T04:10:18.663Z,7.92
2019-06-01T04:12:55.651Z,13.95
2019-06-01T04:15:33.647Z,8.33
2019-06-01T04:18:13.892Z,7.58
2019-06-01T04:20:51.998Z,7.35
2019-06-01T04:23:29.774Z,7.50
2019-06-01T04:26:10.155Z,11.40
2019-06-01T04:28:47.539Z,10.50
2019-06-01T04:31:28.077Z,10.00
2019-06-01T04:34:06.801Z,12.20
2019-06-01T04:36:44.915Z,10.82
2019-06-01T04:39:22.598Z,5.90
2019-06-01T04:42:00.539Z,7.35
2019-06-01T04:44:38.956Z,12.43
2019-06-01T04:47:17.344Z,12.63
2019-06-01T04:49:55.357Z,13.05
2019-06-01T04:52:32.850Z,10.98
2019-06-01T04:55:11.095Z,11.53
2019-06-01T04:57:50.636Z,11.80
2019-06-01T05:00:28.233Z,11.90
2019-06-01T05:03:08.443Z,12.00
2019-06-01T05:05:44.657Z,13.93
2019-06-01T05:08:23.358Z,15.20
2019-06-01T05:11:05.041Z,17.77
2019-06-01T05:13:40.888Z,16.23
2019-06-01T05:16:18.905Z,15.38
2019-06-01T05:18:56.935Z,17.05
2019-06-01T05:21:34.265Z,17.52
2019-06-01T05:24:11.249Z,20.72
2019-06-01T05:26:49.230Z,23.40
2019-06-01T05:29:28.230Z,28.70
2019-06-01T05:32:06.153Z,18.98
2019-06-01T05:34:46.787Z,19.17
2019-06-01T05:37:24.313Z,18.75
2019-06-01T05:40:02.877Z,17.73
2019-06-01T05:42:40.281Z,20.00
2019-06-01T05:45:19.272Z,20.15
2019-06-01T05:47:57.443Z,17.92
2019-06-01T05:50:36.021Z,18.75
2019-06-01T05:53:16.787Z,17.62
2019-06-01T05:55:55.780Z,16.65
2019-06-01T05:58:32.860Z,22.85
2019-06-01T06:01:12.507Z,17.65
2019-06-01T06:03:49.533Z,17.65
2019-06-01T06:06:26.698Z,14.68
2019-06-01T06:09:04.361Z,9.40
2019-06-01T06:11:42.848Z,15.40
2019-06-01T06:14:22.262Z,14.23
2019-06-01T06:17:00.168Z,16.67
2019-06-01T06:19:37.480Z,13.75
2019-06-01T06:22:16.182Z,13.28
2019-06-01T06:24:53.273Z,13.65
2019-06-01T06:27:30.866Z,8.38
2019-06-01T06:30:08.472Z,8.53
2019-06-01T06:32:48.201Z,9.60
2019-06-01T06:35:25.671Z,25.05
2019-06-01T06:38:02.853Z,13.28
2019-06-01T06:40:40.170Z,21.52
2019-06-01T06:43:24.414Z,16.75
2019-06-01T06:45:57.995Z,12.58
2019-06-01T06:48:35.834Z,13.32
2019-06-01T06:51:13.204Z,11.80
2019-06-01T06:53:51.852Z,11.73
2019-06-01T06:56:29.885Z,19.60
2019-06-01T06:59:07.317Z,10.05
2019-06-01T07:01:44.782Z,7.53
2019-06-01T07:04:23.871Z,14.47
2019-06-01T07:07:01.396Z,11.08
2019-06-01T07:09:39.369Z,13.60
2019-06-01T07:12:16.087Z,15.40
2019-06-01T07:14:54.370Z,12.55
2019-06-01T07:17:31.862Z,14.10
2019-06-01T07:20:09.481Z,7.78
2019-06-01T07:22:46.508Z,8.70
2019-06-01T07:25:24.989Z,15.83
2019-06-01T07:28:02.286Z,16.23
2019-06-01T07:30:49.728Z,14.58
2019-06-01T07:33:20.461Z,8.00
2019-06-01T07:35:59.530Z,7.08
2019-06-01T07:38:36.362Z,6.75
2019-06-01T07:41:15.074Z,9.18
2019-06-01T07:43:52.386Z,8.95
2019-06-01T07:46:30.474Z,14.05
2019-06-01T07:49:10.334Z,8.23
2019-06-01T07:51:49.023Z,8.60
2019-06-01T07:54:26.377Z,10.98
2019-06-01T07:57:04.213Z,6.95
2019-06-01T07:59:42.135Z,12.28
2019-06-01T08:02:23.286Z,17.62
2019-06-01T08:04:58.022Z,15.18
2019-06-01T08:07:36.819Z,12.95
2019-06-01T08:10:14.125Z,16.30
2019-06-01T08:12:53.006Z,7.42
2019-06-01T08:15:31.864Z,22.25
2019-06-01T08:18:09.853Z,11.50
2019-06-01T08:20:47.191Z,20.50
2019-06-01T08:23:26.136Z,12.47
2019-06-01T08:26:03.618Z,19.45
2019-06-01T08:28:42.437Z,33.53
2019-06-01T08:31:19.809Z,20.77
2019-06-01T08:33:58.144Z,16.70
2019-06-01T08:36:35.753Z,15.75
2019-06-01T08:39:15.789Z,64.55
2019-06-01T08:41:52.975Z,16.40
2019-06-01T08:44:31.642Z,20.70
2019-06-01T08:47:09.403Z,14.07
2019-06-01T08:49:48.059Z,13.95
2019-06-01T08:52:28.041Z,16.77
2019-06-01T08:55:05.573Z,15.68
2019-06-01T08:57:43.181Z,9.50
2019-06-01T09:00:21.430Z,6.62
2019-06-01T09:02:58.705Z,18.80
2019-06-01T09:05:36.166Z,18.30
2019-06-01T09:08:13.704Z,16.40
2019-06-01T09:10:52.722Z,21.33
2019-06-01T09:13:31.190Z,12.80
2019-06-01T09:16:08.743Z,7.85
2019-06-01T09:18:46.000Z,7.90
2019-06-01T09:21:25.427Z,19.35
2019-06-01T09:24:02.690Z,18.25
2019-06-01T09:26:40.744Z,11.60
2019-06-01T09:29:17.891Z,11.85
2019-06-01T09:31:56.590Z,15.08
2019-06-01T09:34:34.560Z,9.58
2019-06-01T09:37:12.537Z,6.65
2019-06-01T09:39:50.175Z,9.23
2019-06-01T09:42:30.690Z,10.90
2019-06-01T09:45:08.705Z,17.67
2019-06-01T09:47:46.697Z,15.28
2019-06-01T09:50:24.080Z,15.10
2019-06-01T09:53:01.857Z,10.58
2019-06-01T09:55:39.287Z,19.20
2019-06-01T09:58:16.939Z,33.55
2019-06-01T10:00:54.038Z,18.92
2019-06-01T10:03:32.603Z,21.65
2019-06-01T10:06:14.019Z,13.55
2019-06-01T10:08:50.020Z,26.57
2019-06-01T10:11:27.434Z,16.42
2019-06-01T10:14:06.762Z,23.12
2019-06-01T10:16:44.017Z,23.85
2019-06-01T10:19:21.110Z,11.08
2019-06-01T10:21:58.755Z,11.50
2019-06-01T10:24:39.899Z,10.78
2019-06-01T10:27:16.983Z,16.30
2019-06-01T10:29:54.771Z,19.70
2019-06-01T10:32:34.135Z,13.22
2019-06-01T10:35:13.142Z,22.13
2019-06-01T10:37:51.381Z,17.87
2019-06-01T10:40:29.112Z,10.25
2019-06-01T10:43:06.595Z,8.00
2019-06-01T10:45:45.710Z,9.33
2019-06-01T10:48:23.117Z,10.23
2019-06-01T10:51:00.542Z,10.30
2019-06-01T10:53:38.261Z,12.65
2019-06-01T10:56:16.441Z,9.10
2019-06-01T10:59:00.069Z,10.32
2019-06-01T11:01:35.557Z,10.23
2019-06-01T11:04:12.403Z,8.18
2019-06-01T11:06:50.228Z,12.00
2019-06-01T11:09:27.181Z,17.98
2019-06-01T11:12:04.173Z,16.23
2019-06-01T11:14:41.526Z,11.57
2019-06-01T11:17:20.028Z,13.50
2019-06-01T11:19:57.106Z,12.40
2019-06-01T11:22:35.480Z,16.07
2019-06-01T11:25:13.550Z,13.08
2019-06-01T11:27:52.551Z,11.28
2019-06-01T11:30:30.011Z,12.47
2019-06-01T11:33:08.105Z,12.95
2019-06-01T11:35:45.840Z,18.40
2019-06-01T11:38:25.150Z,11.10
2019-06-01T11:41:02.761Z,13.53
2019-06-01T11:43:40.730Z,9.45
2019-06-01T11:46:19.014Z,10.75
2019-06-01T11:48:58.226Z,12.18
2019-06-01T11:51:36.885Z,11.35
2019-06-01T11:54:32.857Z,16.97
2019-06-01T11:57:09.995Z,9.90
2019-06-01T11:59:48.042Z,12.53
2019-06-01T12:02:25.640Z,9.75
2019-06-01T12:05:02.785Z,18.85
2019-06-01T12:07:40.454Z,13.65
2019-06-01T12:10:18.544Z,16.48
2019-06-01T12:12:55.949Z,17.37
2019-06-01T12:15:33.276Z,9.98
2019-06-01T12:18:10.581Z,13.30
2019-06-01T12:20:50.490Z,13.83
2019-06-01T12:23:27.986Z,17.67
2019-06-01T12:26:05.429Z,41.98
2019-06-01T12:28:43.788Z,16.17
2019-06-01T12:31:21.571Z,8.23
2019-06-01T12:33:59.175Z,10.13
2019-06-01T12:36:39.221Z,7.72
2019-06-01T12:39:17.255Z,12.65
2019-06-01T12:41:55.172Z,9.10
2019-06-01T12:44:32.385Z,8.63
2019-06-01T12:47:10.195Z,8.55
2019-06-01T12:49:48.270Z,7.78
2019-06-01T12:52:27.959Z,15.40
2019-06-01T12:55:05.248Z,20.27
2019-06-01T12:57:42.953Z,17.32
2019-06-01T13:00:20.613Z,13.32
2019-06-01T13:03:07.106Z,7.70
2019-06-01T13:05:38.856Z,12.73
2019-06-01T13:08:17.321Z,10.32
2019-06-01T13:10:54.931Z,11.65
2019-06-01T13:13:33.241Z,13.83
2019-06-01T13:16:10.967Z,19.12
2019-06-01T13:18:47.834Z,15.50
2019-06-01T13:21:27.629Z,17.98
2019-06-01T13:24:05.849Z,18.85
2019-06-01T13:26:43.720Z,15.13
2019-06-01T13:29:21.295Z,16.07
2019-06-01T13:31:58.627Z,19.48
2019-06-01T13:34:37.068Z,19.25
2019-06-01T13:37:14.987Z,28.23
2019-06-01T13:39:57.644Z,23.60
2019-06-01T13:42:31.220Z,20.20
2019-06-01T13:45:09.146Z,22.65
2019-06-01T13:47:47.673Z,22.27
2019-06-01T13:50:24.751Z,21.62
2019-06-01T13:53:02.327Z,17.15
2019-06-01T13:55:42.032Z,17.12
2019-06-01T13:58:19.673Z,23.42
2019-06-01T14:00:57.048Z,23.45
2019-06-01T14:03:34.608Z,20.62
2019-06-01T14:06:13.614Z,16.60
2019-06-01T14:08:51.333Z,19.10
2019-06-01T14:11:28.693Z,12.95
2019-06-01T14:14:06.041Z,13.58
2019-06-01T14:16:43.777Z,15.43
2019-06-01T14:19:21.086Z,11.35
2019-06-01T14:21:59.138Z,16.50
2019-06-01T14:24:42.680Z,12.95
2019-06-01T14:27:17.566Z,14.58
2019-06-01T14:29:54.559Z,13.85
2019-06-01T14:32:31.916Z,11.50
2019-06-01T14:35:10.055Z,11.43
2019-06-01T14:37:48.729Z,13.08
2019-06-01T14:40:26.404Z,14.98
2019-06-01T14:43:03.669Z,13.83
2019-06-01T14:45:41.949Z,17.10
2019-06-01T14:48:20.216Z,22.05
2019-06-01T14:50:57.902Z,24.63
2019-06-01T14:53:35.631Z,24.80
2019-06-01T14:56:12.683Z,15.32
2019-06-01T14:58:51.942Z,14.75
2019-06-01T15:01:32.857Z,17.42
2019-06-01T15:04:08.296Z,12.53
2019-06-01T15:06:45.390Z,8.80
2019-06-01T15:09:23.817Z,14.87
2019-06-01T15:12:00.981Z,15.30
2019-06-01T15:14:39.338Z,12.00
2019-06-01T15:17:16.762Z,10.68
2019-06-01T15:19:56.171Z,17.25
2019-06-01T15:22:34.012Z,18.45
2019-06-01T15:25:11.225Z,12.33
2019-06-01T15:27:50.534Z,13.00
2019-06-01T15:30:29.891Z,11.63
2019-06-01T15:33:07.540Z,14.47
2019-06-01T15:35:45.131Z,9.53
2019-06-01T15:38:23.138Z,16.35
2019-06-01T15:41:00.883Z,14.63
2019-06-01T15:43:39.305Z,16.27
2019-06-01T15:46:16.726Z,11.15
2019-06-01T15:48:53.713Z,16.17
2019-06-01T15:51:31.695Z,9.90
2019-06-01T15:54:09.642Z,15.10
2019-06-01T15:56:47.300Z,10.70
2019-06-01T15:59:24.885Z,9.18
2019-06-01T16:02:04.103Z,9.50
2019-06-01T16:04:41.620Z,10.28
2019-06-01T16:07:19.123Z,14.78
2019-06-01T16:09:57.397Z,11.60
2019-06-01T16:12:35.527Z,13.10
2019-06-01T16:15:12.781Z,10.60
2019-06-01T16:17:50.479Z,15.75
2019-06-01T16:20:28.066Z,12.75
2019-06-01T16:23:05.963Z,14.00
2019-06-01T16:25:53.071Z,9.68
2019-06-01T16:28:24.525Z,8.43
2019-06-01T16:31:03.002Z,14.45
2019-06-01T16:33:42.444Z,9.28
2019-06-01T16:36:19.983Z,10.20
2019-06-01T16:39:03.088Z,10.20
2019-06-01T16:41:38.274Z,7.92
2019-06-01T16:44:20.032Z,12.75
2019-06-01T16:46:57.700Z,6.45
2019-06-01T16:49:34.966Z,11.85
2019-06-01T16:52:12.095Z,11.48
2019-06-01T16:54:49.825Z,8.35
2019-06-01T16:57:27.299Z,10.78
2019-06-01T17:00:05.037Z,9.25
2019-06-01T17:02:42.896Z,9.20
2019-06-01T17:05:22.459Z,7.30
2019-06-01T17:08:00.808Z,5.85
2019-06-01T17:10:38.215Z,8.70
2019-06-01T17:13:33.479Z,11.85
2019-06-01T17:16:11.617Z,9.38
2019-06-01T17:18:49.082Z,12.33
2019-06-01T17:21:26.693Z,17.90
2019-06-01T17:24:04.197Z,20.00
2019-06-01T17:26:42.791Z,16.77
2019-06-01T17:29:20.029Z,17.75
2019-06-01T17:32:15.742Z,12.53
2019-06-01T17:34:36.539Z,13.25
2019-06-01T17:37:15.314Z,11.85
2019-06-01T17:39:53.362Z,18.62
2019-06-01T17:42:30.412Z,17.07
2019-06-01T17:45:09.456Z,12.35
2019-06-01T17:47:47.670Z,14.35
2019-06-01T17:50:26.013Z,13.22
2019-06-01T17:53:04.713Z,12.07
2019-06-01T17:55:43.108Z,14.65
2019-06-01T17:58:21.749Z,12.50
2019-06-01T18:00:59.250Z,14.03
2019-06-01T18:03:36.614Z,14.13
2019-06-01T18:06:13.789Z,15.78
2019-06-01T18:08:52.901Z,11.30
2019-06-01T18:11:30.189Z,17.70
2019-06-01T18:14:08.579Z,12.00
2019-06-01T18:16:46.326Z,10.03
2019-06-01T18:19:24.392Z,17.77
2019-06-01T18:22:02.570Z,24.07
2019-06-01T18:24:40.412Z,33.20
2019-06-01T18:27:17.372Z,21.50
2019-06-01T18:29:56.244Z,20.95
2019-06-01T18:32:33.917Z,22.65
2019-06-01T18:35:11.418Z,15.13
2019-06-01T18:37:49.415Z,20.60
2019-06-01T18:40:28.941Z,17.82
2019-06-01T18:43:09.971Z,22.17
2019-06-01T18:45:48.256Z,13.50
2019-06-01T18:48:25.757Z,15.53
2019-06-01T18:51:04.094Z,24.90
2019-06-01T18:53:42.208Z,23.60
2019-06-01T18:56:19.891Z,23.60
2019-06-01T18:58:56.980Z,22.98
2019-06-01T19:01:35.549Z,16.85
2019-06-01T19:04:13.735Z,16.32
2019-06-01T19:06:51.129Z,19.90
2019-06-01T19:09:28.611Z,13.20
2019-06-01T19:12:08.940Z,15.20
2019-06-01T19:14:46.290Z,15.13
2019-06-01T19:17:24.105Z,12.45
2019-06-01T19:20:01.469Z,9.03
2019-06-01T19:22:40.075Z,11.78
2019-06-01T19:25:18.057Z,10.00
2019-06-01T19:27:55.864Z,11.55
2019-06-01T19:30:46.892Z,9.15
2019-06-01T19:33:25.168Z,10.93
2019-06-01T19:36:03.117Z,10.35
2019-06-01T19:38:41.929Z,11.45
2019-06-01T19:41:19.927Z,10.82
2019-06-01T19:43:58.486Z,9.98
2019-06-01T19:46:35.763Z,10.38
2019-06-01T19:49:14.996Z,14.10
2019-06-01T19:51:52.532Z,11.33
2019-06-01T19:54:30.969Z,8.68
2019-06-01T19:57:09.716Z,10.63
2019-06-01T19:59:47.398Z,8.88
2019-06-01T20:02:33.346Z,10.13
2019-06-01T20:05:03.768Z,13.48
2019-06-01T20:07:40.916Z,10.90
2019-06-01T20:10:19.740Z,10.48
2019-06-01T20:12:57.185Z,9.08
2019-06-01T20:15:35.606Z,11.65
2019-06-01T20:18:13.024Z,13.83
2019-06-01T20:20:50.484Z,11.05
2019-06-01T20:23:27.908Z,12.03
2019-06-01T20:26:06.053Z,16.48
2019-06-01T20:28:43.433Z,14.65
2019-06-01T20:31:22.054Z,14.75
2019-06-01T20:33:59.932Z,13.18
2019-06-01T20:36:38.867Z,15.50
2019-06-01T20:39:16.264Z,12.15
2019-06-01T20:41:54.671Z,13.72
2019-06-01T20:44:32.099Z,14.33
2019-06-01T20:47:12.485Z,19.67
2019-06-01T20:49:50.266Z,17.77
2019-06-01T20:52:27.406Z,14.33
2019-06-01T20:55:04.904Z,14.93
2019-06-01T20:57:42.806Z,12.58
2019-06-01T21:00:21.695Z,6.15
2019-06-01T21:02:59.051Z,4.17
2019-06-01T21:05:36.413Z,7.33
2019-06-01T21:08:14.194Z,2.62
2019-06-01T21:10:51.798Z,1.92
2019-06-01T21:13:29.436Z,4.00
2019-06-01T21:16:06.634Z,6.78
2019-06-01T21:18:47.897Z,6.40
2019-06-01T21:21:25.006Z,2.65
2019-06-01T21:24:02.479Z,3.83
2019-06-01T21:26:39.746Z,2.30
2019-06-01T21:29:18.743Z,5.00
2019-06-01T21:31:56.439Z,4.22
2019-06-01T21:34:33.690Z,2.08
2019-06-01T21:37:11.509Z,3.35
2019-06-01T21:39:50.248Z,3.75
2019-06-01T21:42:28.101Z,3.62
2019-06-01T21:45:06.034Z,4.28
2019-06-01T21:47:43.868Z,3.80
2019-06-01T21:50:23.994Z,2.87
2019-06-01T21:53:01.434Z,10.32
2019-06-01T21:55:39.165Z,4.20
2019-06-01T21:58:16.687Z,2.75
2019-06-01T22:00:54.499Z,3.08
2019-06-01T22:03:32.000Z,5.42
2019-06-01T22:06:09.471Z,2.00
2019-06-01T22:08:52.795Z,3.90
2019-06-01T22:11:27.587Z,3.77
2019-06-01T22:14:04.880Z,2.75
2019-06-01T22:16:42.209Z,5.92
2019-06-01T22:19:22.074Z,4.15
2019-06-01T22:22:01.630Z,3.27
2019-06-01T22:24:38.802Z,3.77
2019-06-01T22:27:15.989Z,2.92
2019-06-01T22:29:53.498Z,5.90
2019-06-01T22:32:31.790Z,3.40
2019-06-01T22:35:10.814Z,4.47
2019-06-01T22:37:48.722Z,7.55
2019-06-01T22:40:27.286Z,7.15
2019-06-01T22:43:05.713Z,4.87
2019-06-01T22:45:42.871Z,8.13
2019-06-01T22:48:21.010Z,6.08
2019-06-01T22:50:58.959Z,6.33
2019-06-01T22:53:37.687Z,5.17
2019-06-01T22:56:14.867Z,7.30
2019-06-01T22:58:53.597Z,6.58
2019-06-01T23:01:31.158Z,9.13
2019-06-01T23:04:09.535Z,11.48
2019-06-01T23:06:46.878Z,7.12
2019-06-01T23:09:25.592Z,11.08
2019-06-01T23:12:02.667Z,6.97
2019-06-01T23:14:40.861Z,5.42
2019-06-01T23:17:18.068Z,5.50
2019-06-01T23:19:55.964Z,5.90
2019-06-01T23:22:33.597Z,8.40
2019-06-01T23:25:12.737Z,6.40
2019-06-01T23:27:50.020Z,8.70
2019-06-01T23:30:28.280Z,5.45
2019-06-01T23:33:05.782Z,7.90
2019-06-01T23:35:44.050Z,4.67
2019-06-01T23:38:22.531Z,7.60
2019-06-01T23:40:59.991Z,8.60
2019-06-01T23:43:38.677Z,10.88
2019-06-01T23:46:16.615Z,8.35
2019-06-01T23:48:53.959Z,6.70
2019-06-01T23:51:32.046Z,7.65
2019-06-01T23:54:09.348Z,6.15
2019-06-01T23:56:48.989Z,8.68
2019-06-01T23:59:27.966Z,6.12
